sensor_id;sensor_type;location;lat;lon;timestamp;pressure;altitude;pressure_sealevel;temperature;humidity
62680;BME280;68213;40.528;44.712;2023-04-08T00:00:01;80073.59;;;2.97;79.17
62680;BME280;68213;40.528;44.712;2023-04-08T00:01:02;80079.88;;;3.04;79.09
62680;BME280;68213;40.528;44.712;2023-04-08T00:02:03;80085.59;;;3.02;79.01
62680;BME280;68213;40.528;44.712;2023-04-08T00:03:04;80081.53;;;2.99;79.02
62680;BME280;68213;40.528;44.712;2023-04-08T00:04:05;80097.78;;;2.99;79.22
62680;BME280;68213;40.528;44.712;2023-04-08T00:05:08;80107.75;;;2.93;79.77
62680;BME280;68213;40.528;44.712;2023-04-08T00:06:09;80113.47;;;2.92;80.09
62680;BME280;68213;40.528;44.712;2023-04-08T00:07:13;80121.53;;;2.96;79.86
62680;BME280;68213;40.528;44.712;2023-04-08T00:08:13;80118.38;;;2.88;79.98
62680;BME280;68213;40.528;44.712;2023-04-08T00:09:14;80124.94;;;2.89;80.24
62680;BME280;68213;40.528;44.712;2023-04-08T00:10:15;80124.94;;;2.89;80.15
62680;BME280;68213;40.528;44.712;2023-04-08T00:11:16;80129.84;;;2.84;81.43
62680;BME280;68213;40.528;44.712;2023-04-08T00:12:16;80136.03;;;2.89;81.25
62680;BME280;68213;40.528;44.712;2023-04-08T00:13:17;80129.47;;;2.88;81.25
62680;BME280;68213;40.528;44.712;2023-04-08T00:14:17;80133.94;;;2.88;80.63
62680;BME280;68213;40.528;44.712;2023-04-08T00:15:18;80103.19;;;2.74;80.86
62680;BME280;68213;40.528;44.712;2023-04-08T00:16:19;80124.94;;;2.89;80.15
62680;BME280;68213;40.528;44.712;2023-04-08T00:17:19;80108.66;;;2.78;79.94
62680;BME280;68213;40.528;44.712;2023-04-08T00:18:20;80113.81;;;2.68;80.70
62680;BME280;68213;40.528;44.712;2023-04-08T00:19:21;80120.13;;;2.75;80.57
62680;BME280;68213;40.528;44.712;2023-04-08T00:20:23;80123.56;;;2.88;80.23
62680;BME280;68213;40.528;44.712;2023-04-08T00:21:24;80107.41;;;2.79;79.78
62680;BME280;68213;40.528;44.712;2023-04-08T00:22:24;80111.50;;;2.73;77.79
62680;BME280;68213;40.528;44.712;2023-04-08T00:23:25;80122.00;;;2.65;77.97
62680;BME280;68213;40.528;44.712;2023-04-08T00:24:27;80118.59;;;2.72;78.13
62680;BME280;68213;40.528;44.712;2023-04-08T00:25:28;80120.69;;;2.74;77.81
62680;BME280;68213;40.528;44.712;2023-04-08T00:26:29;80116.47;;;2.78;77.83
62680;BME280;68213;40.528;44.712;2023-04-08T00:27:30;80111.38;;;2.70;78.21
62680;BME280;68213;40.528;44.712;2023-04-08T00:28:30;80110.69;;;2.70;78.49
62680;BME280;68213;40.528;44.712;2023-04-08T00:29:31;80103.81;;;2.65;78.83
62680;BME280;68213;40.528;44.712;2023-04-08T00:30:32;80115.31;;;2.62;78.68
62680;BME280;68213;40.528;44.712;2023-04-08T00:31:32;80111.72;;;2.57;78.29
62680;BME280;68213;40.528;44.712;2023-04-08T00:32:33;80098.47;;;2.53;78.78
62680;BME280;68213;40.528;44.712;2023-04-08T00:33:34;80080.72;;;2.49;78.84
62680;BME280;68213;40.528;44.712;2023-04-08T00:34:34;80068.41;;;2.50;79.23
62680;BME280;68213;40.528;44.712;2023-04-08T00:35:36;80065.53;;;2.46;79.29
62680;BME280;68213;40.528;44.712;2023-04-08T00:36:37;80060.59;;;2.40;79.29
62680;BME280;68213;40.528;44.712;2023-04-08T00:37:37;80059.47;;;2.33;79.44
62680;BME280;68213;40.528;44.712;2023-04-08T00:38:38;80062.31;;;2.28;79.79
62680;BME280;68213;40.528;44.712;2023-04-08T00:39:39;80056.63;;;2.29;79.75
62680;BME280;68213;40.528;44.712;2023-04-08T00:40:39;80051.13;;;2.25;80.19
62680;BME280;68213;40.528;44.712;2023-04-08T00:41:41;80051.53;;;2.21;80.05
62680;BME280;68213;40.528;44.712;2023-04-08T00:42:42;80051.91;;;2.18;80.25
62680;BME280;68213;40.528;44.712;2023-04-08T00:43:43;80050.94;;;2.13;80.56
62680;BME280;68213;40.528;44.712;2023-04-08T00:44:43;80040.97;;;2.10;80.55
62680;BME280;68213;40.528;44.712;2023-04-08T00:45:44;80041.38;;;2.06;80.78
62680;BME280;68213;40.528;44.712;2023-04-08T00:46:45;80038.25;;;2.08;80.94
62680;BME280;68213;40.528;44.712;2023-04-08T00:47:46;80041.91;;;2.04;80.97
62680;BME280;68213;40.528;44.712;2023-04-08T00:48:51;80047.84;;;2.15;80.51
62680;BME280;68213;40.528;44.712;2023-04-08T00:49:52;80038.56;;;2.21;80.33
62680;BME280;68213;40.528;44.712;2023-04-08T00:50:53;80038.84;;;2.26;80.20
62680;BME280;68213;40.528;44.712;2023-04-08T00:51:53;80042.81;;;2.27;79.72
62680;BME280;68213;40.528;44.712;2023-04-08T00:52:55;80044.16;;;2.28;80.02
62680;BME280;68213;40.528;44.712;2023-04-08T00:53:55;80056.06;;;2.31;80.15
62680;BME280;68213;40.528;44.712;2023-04-08T00:54:56;80064.00;;;2.33;79.67
62680;BME280;68213;40.528;44.712;2023-04-08T00:55:57;80060.44;;;2.28;79.68
62680;BME280;68213;40.528;44.712;2023-04-08T00:56:59;80061.25;;;2.31;79.76
62680;BME280;68213;40.528;44.712;2023-04-08T00:58:00;80055.25;;;2.28;79.90
62680;BME280;68213;40.528;44.712;2023-04-08T00:59:02;80053.47;;;2.31;80.30
62680;BME280;68213;40.528;44.712;2023-04-08T01:00:04;80044.41;;;2.12;80.58
62680;BME280;68213;40.528;44.712;2023-04-08T01:01:10;80037.28;;;2.03;80.84
62680;BME280;68213;40.528;44.712;2023-04-08T01:03:38;80030.97;;;1.96;81.47
62680;BME280;68213;40.528;44.712;2023-04-08T01:06:00;80027.75;;;2.15;80.75
62680;BME280;68213;40.528;44.712;2023-04-08T01:08:10;80021.38;;;2.26;79.98
62680;BME280;68213;40.528;44.712;2023-04-08T01:09:12;80002.13;;;2.19;79.36
62680;BME280;68213;40.528;44.712;2023-04-08T01:10:20;80011.03;;;2.36;78.97
62680;BME280;68213;40.528;44.712;2023-04-08T01:11:21;80015.69;;;2.37;78.54
62680;BME280;68213;40.528;44.712;2023-04-08T01:12:28;80017.19;;;2.41;78.55
62680;BME280;68213;40.528;44.712;2023-04-08T01:13:33;80015.28;;;2.41;78.48
62680;BME280;68213;40.528;44.712;2023-04-08T01:14:40;80003.81;;;2.44;77.88
62680;BME280;68213;40.528;44.712;2023-04-08T01:15:43;80007.50;;;2.41;78.33
62680;BME280;68213;40.528;44.712;2023-04-08T01:16:44;80006.25;;;2.42;78.17
62680;BME280;68213;40.528;44.712;2023-04-08T01:17:49;79997.25;;;2.43;77.45
62680;BME280;68213;40.528;44.712;2023-04-08T01:18:53;79976.09;;;2.37;77.48
62680;BME280;68213;40.528;44.712;2023-04-08T01:19:56;79990.19;;;2.53;77.13
62680;BME280;68213;40.528;44.712;2023-04-08T01:20:59;79992.53;;;2.59;76.44
62680;BME280;68213;40.528;44.712;2023-04-08T01:22:18;79984.03;;;2.68;76.81
62680;BME280;68213;40.528;44.712;2023-04-08T01:23:36;79992.66;;;2.71;75.97
62680;BME280;68213;40.528;44.712;2023-04-08T01:24:39;79998.81;;;2.76;76.21
62680;BME280;68213;40.528;44.712;2023-04-08T01:25:50;79999.66;;;2.78;74.66
62680;BME280;68213;40.528;44.712;2023-04-08T01:26:54;80001.44;;;2.85;74.98
62680;BME280;68213;40.528;44.712;2023-04-08T01:27:57;80016.31;;;2.85;74.94
62680;BME280;68213;40.528;44.712;2023-04-08T01:29:00;79990.19;;;2.73;74.90
62680;BME280;68213;40.528;44.712;2023-04-08T01:30:03;80001.84;;;2.92;74.67
62680;BME280;68213;40.528;44.712;2023-04-08T01:31:06;80005.53;;;2.98;72.50
62680;BME280;68213;40.528;44.712;2023-04-08T01:32:07;80000.19;;;3.06;72.39
62680;BME280;68213;40.528;44.712;2023-04-08T01:33:14;79999.25;;;3.11;73.35
62680;BME280;68213;40.528;44.712;2023-04-08T01:34:17;80000.88;;;3.16;72.32
62680;BME280;68213;40.528;44.712;2023-04-08T01:35:19;80001.16;;;3.21;72.10
62680;BME280;68213;40.528;44.712;2023-04-08T01:36:20;80011.13;;;3.24;71.62
62680;BME280;68213;40.528;44.712;2023-04-08T01:37:22;80013.31;;;3.28;71.83
62680;BME280;68213;40.528;44.712;2023-04-08T01:38:25;80022.50;;;3.29;72.95
62680;BME280;68213;40.528;44.712;2023-04-08T01:39:26;80029.72;;;3.30;72.15
62680;BME280;68213;40.528;44.712;2023-04-08T01:40:28;80007.56;;;3.29;72.09
62680;BME280;68213;40.528;44.712;2023-04-08T01:41:30;80024.94;;;3.27;72.21
62680;BME280;68213;40.528;44.712;2023-04-08T01:42:34;80031.09;;;3.31;72.69
62680;BME280;68213;40.528;44.712;2023-04-08T01:43:38;80008.66;;;3.16;73.40
62680;BME280;68213;40.528;44.712;2023-04-08T01:44:40;80030.13;;;3.27;75.13
62680;BME280;68213;40.528;44.712;2023-04-08T01:45:46;80028.50;;;3.22;75.54
62680;BME280;68213;40.528;44.712;2023-04-08T01:46:48;80021.66;;;3.16;75.43
62680;BME280;68213;40.528;44.712;2023-04-08T01:47:49;80016.47;;;3.16;74.94
62680;BME280;68213;40.528;44.712;2023-04-08T01:48:51;80020.84;;;3.14;74.90
62680;BME280;68213;40.528;44.712;2023-04-08T01:49:52;80018.25;;;3.14;75.89
62680;BME280;68213;40.528;44.712;2023-04-08T01:50:54;80005.53;;;3.18;76.33
62680;BME280;68213;40.528;44.712;2023-04-08T01:51:57;80010.88;;;3.20;76.64
62680;BME280;68213;40.528;44.712;2023-04-08T01:52:59;80010.19;;;3.20;77.05
62680;BME280;68213;40.528;44.712;2023-04-08T01:54:00;80010.19;;;3.20;78.02
62680;BME280;68213;40.528;44.712;2023-04-08T01:55:01;80004.97;;;3.20;77.62
62680;BME280;68213;40.528;44.712;2023-04-08T01:56:11;79993.38;;;3.01;78.23
62680;BME280;68213;40.528;44.712;2023-04-08T01:57:21;79995.56;;;3.05;78.92
62680;BME280;68213;40.528;44.712;2023-04-08T01:58:26;80009.50;;;2.99;79.04
62680;BME280;68213;40.528;44.712;2023-04-08T01:59:34;80009.38;;;3.07;79.54
62680;BME280;68213;40.528;44.712;2023-04-08T02:00:36;80005.53;;;3.08;79.16
62680;BME280;68213;40.528;44.712;2023-04-08T02:01:38;80011.81;;;2.85;80.21
62680;BME280;68213;40.528;44.712;2023-04-08T02:02:41;80014.69;;;2.90;79.94
62680;BME280;68213;40.528;44.712;2023-04-08T02:03:43;80010.19;;;2.90;79.74
62680;BME280;68213;40.528;44.712;2023-04-08T02:04:45;80009.22;;;2.85;79.70
62680;BME280;68213;40.528;44.712;2023-04-08T02:05:45;79994.88;;;2.84;80.13
62680;BME280;68213;40.528;44.712;2023-04-08T02:06:46;79997.31;;;2.82;80.34
62680;BME280;68213;40.528;44.712;2023-04-08T02:07:48;79995.81;;;2.89;80.33
62680;BME280;68213;40.528;44.712;2023-04-08T02:08:48;79988.56;;;2.88;80.04
62680;BME280;68213;40.528;44.712;2023-04-08T02:09:50;79988.44;;;2.85;80.02
62680;BME280;68213;40.528;44.712;2023-04-08T02:10:51;79998.69;;;2.83;80.30
62680;BME280;68213;40.528;44.712;2023-04-08T02:11:52;79990.09;;;2.81;80.66
62680;BME280;68213;40.528;44.712;2023-04-08T02:12:53;79993.63;;;2.76;81.15
62680;BME280;68213;40.528;44.712;2023-04-08T02:13:54;79994.03;;;2.72;81.17
62680;BME280;68213;40.528;44.712;2023-04-08T02:14:55;79988.81;;;2.72;80.81
62680;BME280;68213;40.528;44.712;2023-04-08T02:16:03;79991.16;;;2.58;80.97
62680;BME280;68213;40.528;44.712;2023-04-08T02:17:10;79983.34;;;2.48;81.51
62680;BME280;68213;40.528;44.712;2023-04-08T02:18:24;79991.25;;;2.50;81.51
62680;BME280;68213;40.528;44.712;2023-04-08T02:19:40;79993.03;;;2.48;82.33
62680;BME280;68213;40.528;44.712;2023-04-08T02:20:47;79998.91;;;2.48;82.10
62680;BME280;68213;40.528;44.712;2023-04-08T02:21:54;80006.69;;;2.48;81.82
62680;BME280;68213;40.528;44.712;2023-04-08T02:23:04;80001.38;;;2.46;81.73
62680;BME280;68213;40.528;44.712;2023-04-08T02:24:12;79996.44;;;2.50;81.86
62680;BME280;68213;40.528;44.712;2023-04-08T02:25:15;79999.47;;;2.57;81.31
62680;BME280;68213;40.528;44.712;2023-04-08T02:26:16;80001.13;;;2.62;81.17
62680;BME280;68213;40.528;44.712;2023-04-08T02:27:19;79992.53;;;2.59;80.97
62680;BME280;68213;40.528;44.712;2023-04-08T02:28:21;79997.47;;;2.75;80.46
62680;BME280;68213;40.528;44.712;2023-04-08T02:29:23;79995.81;;;2.79;80.22
62680;BME280;68213;40.528;44.712;2023-04-08T02:30:26;79990.91;;;2.83;79.91
62680;BME280;68213;40.528;44.712;2023-04-08T02:31:27;79945.66;;;2.37;80.05
62680;BME280;68213;40.528;44.712;2023-04-08T02:32:30;79991.31;;;2.70;80.92
62680;BME280;68213;40.528;44.712;2023-04-08T02:33:33;79993.91;;;2.70;80.98
62680;BME280;68213;40.528;44.712;2023-04-08T02:34:34;79998.13;;;2.75;81.39
62680;BME280;68213;40.528;44.712;2023-04-08T02:35:35;80001.28;;;2.74;81.19
62680;BME280;68213;40.528;44.712;2023-04-08T02:36:38;79976.25;;;2.59;80.72
62680;BME280;68213;40.528;44.712;2023-04-08T02:37:44;79983.50;;;2.70;80.61
62680;BME280;68213;40.528;44.712;2023-04-08T02:38:48;79988.56;;;2.68;80.64
62680;BME280;68213;40.528;44.712;2023-04-08T02:39:49;79990.59;;;2.69;80.65
62680;BME280;68213;40.528;44.712;2023-04-08T02:40:53;79981.31;;;2.66;81.12
62680;BME280;68213;40.528;44.712;2023-04-08T02:41:54;79980.91;;;2.60;81.24
62680;BME280;68213;40.528;44.712;2023-04-08T02:42:55;79972.44;;;2.60;81.53
62680;BME280;68213;40.528;44.712;2023-04-08T02:43:56;79968.34;;;2.57;81.57
62680;BME280;68213;40.528;44.712;2023-04-08T02:44:57;79969.16;;;2.49;81.69
62680;BME280;68213;40.528;44.712;2023-04-08T02:45:58;79969.94;;;2.42;81.94
62680;BME280;68213;40.528;44.712;2023-04-08T02:47:02;79972.25;;;2.38;82.36
62680;BME280;68213;40.528;44.712;2023-04-08T02:48:03;79972.69;;;2.44;82.41
62680;BME280;68213;40.528;44.712;2023-04-08T02:49:05;79968.47;;;2.49;81.97
62680;BME280;68213;40.528;44.712;2023-04-08T02:50:06;79962.31;;;2.54;81.29
62680;BME280;68213;40.528;44.712;2023-04-08T02:51:07;79958.22;;;2.61;80.97
62680;BME280;68213;40.528;44.712;2023-04-08T02:52:07;79952.91;;;2.59;81.15
62680;BME280;68213;40.528;44.712;2023-04-08T02:53:08;79943.22;;;2.59;80.73
62680;BME280;68213;40.528;44.712;2023-04-08T02:54:09;79936.50;;;2.56;80.89
62680;BME280;68213;40.528;44.712;2023-04-08T02:55:10;79954.81;;;2.48;81.03
62680;BME280;68213;40.528;44.712;2023-04-08T02:56:13;79972.16;;;2.56;80.93
62680;BME280;68213;40.528;44.712;2023-04-08T02:57:14;79969.84;;;2.60;80.25
62680;BME280;68213;40.528;44.712;2023-04-08T02:58:19;79941.59;;;2.64;79.68
62680;BME280;68213;40.528;44.712;2023-04-08T02:59:19;79929.00;;;2.60;80.26
62680;BME280;68213;40.528;44.712;2023-04-08T03:00:20;79932.97;;;2.51;81.18
62680;BME280;68213;40.528;44.712;2023-04-08T03:01:21;79965.34;;;2.70;81.05
62680;BME280;68213;40.528;44.712;2023-04-08T03:02:21;79979.25;;;2.65;80.69
62680;BME280;68213;40.528;44.712;2023-04-08T03:03:22;79972.03;;;2.53;80.73
62680;BME280;68213;40.528;44.712;2023-04-08T03:04:28;79991.56;;;2.74;80.60
62680;BME280;68213;40.528;44.712;2023-04-08T03:05:29;80012.34;;;2.74;80.21
62680;BME280;68213;40.528;44.712;2023-04-08T03:06:29;80035.69;;;2.64;79.23
62680;BME280;68213;40.528;44.712;2023-04-08T03:07:32;80013.22;;;2.40;79.38
62680;BME280;68213;40.528;44.712;2023-04-08T03:08:36;79978.00;;;2.46;79.21
62680;BME280;68213;40.528;44.712;2023-04-08T03:09:36;79952.22;;;2.58;77.80
62680;BME280;68213;40.528;44.712;2023-04-08T03:10:37;79949.38;;;2.64;77.96
62680;BME280;68213;40.528;44.712;2023-04-08T03:11:38;79943.34;;;2.61;78.63
62680;BME280;68213;40.528;44.712;2023-04-08T03:12:38;79937.47;;;2.61;78.22
62680;BME280;68213;40.528;44.712;2023-04-08T03:13:39;79937.22;;;2.57;78.75
62680;BME280;68213;40.528;44.712;2023-04-08T03:14:40;79951.00;;;2.59;79.26
62680;BME280;68213;40.528;44.712;2023-04-08T03:15:43;79954.13;;;2.58;79.55
62680;BME280;68213;40.528;44.712;2023-04-08T03:16:43;79960.28;;;2.52;79.84
62680;BME280;68213;40.528;44.712;2023-04-08T03:17:47;79939.91;;;2.39;79.98
62680;BME280;68213;40.528;44.712;2023-04-08T03:18:49;79956.59;;;2.56;79.87
62680;BME280;68213;40.528;44.712;2023-04-08T03:19:50;79951.66;;;2.60;79.33
62680;BME280;68213;40.528;44.712;2023-04-08T03:20:51;79959.03;;;2.53;79.32
62680;BME280;68213;40.528;44.712;2023-04-08T03:21:51;79956.88;;;2.60;79.55
62680;BME280;68213;40.528;44.712;2023-04-08T03:22:52;79963.41;;;2.61;78.93
62680;BME280;68213;40.528;44.712;2023-04-08T03:23:53;79968.34;;;2.57;79.50
62680;BME280;68213;40.528;44.712;2023-04-08T03:24:55;79963.69;;;2.65;79.28
62680;BME280;68213;40.528;44.712;2023-04-08T03:25:56;79960.16;;;2.70;79.00
62680;BME280;68213;40.528;44.712;2023-04-08T03:26:56;79962.47;;;2.76;78.92
62680;BME280;68213;40.528;44.712;2023-04-08T03:27:57;79961.53;;;2.71;78.34
62680;BME280;68213;40.528;44.712;2023-04-08T03:28:58;79964.78;;;2.81;78.06
62680;BME280;68213;40.528;44.712;2023-04-08T03:30:01;79961.25;;;2.87;78.20
62680;BME280;68213;40.528;44.712;2023-04-08T03:31:04;79959.47;;;2.89;77.90
62680;BME280;68213;40.528;44.712;2023-04-08T03:32:05;79950.06;;;2.94;78.04
62680;BME280;68213;40.528;44.712;2023-04-08T03:33:06;79943.63;;;2.95;78.03
62680;BME280;68213;40.528;44.712;2023-04-08T03:34:08;79933.34;;;3.07;77.78
62680;BME280;68213;40.528;44.712;2023-04-08T03:35:08;79921.91;;;3.00;78.27
62680;BME280;68213;40.528;44.712;2023-04-08T03:36:09;79938.16;;;3.20;78.28
62680;BME280;68213;40.528;44.712;2023-04-08T03:37:10;79936.63;;;3.27;78.31
62680;BME280;68213;40.528;44.712;2023-04-08T03:38:10;79932.38;;;3.31;78.19
62680;BME280;68213;40.528;44.712;2023-04-08T03:39:11;79936.06;;;3.28;78.23
62680;BME280;68213;40.528;44.712;2023-04-08T03:40:14;79943.19;;;3.28;78.85
62680;BME280;68213;40.528;44.712;2023-04-08T03:41:15;79940.84;;;3.32;79.30
62680;BME280;68213;40.528;44.712;2023-04-08T03:42:18;79937.97;;;3.38;78.75
62680;BME280;68213;40.528;44.712;2023-04-08T03:43:19;79933.59;;;3.40;78.77
62680;BME280;68213;40.528;44.712;2023-04-08T03:44:21;79933.88;;;3.44;78.81
62680;BME280;68213;40.528;44.712;2023-04-08T03:45:22;79933.69;;;3.52;77.49
62680;BME280;68213;40.528;44.712;2023-04-08T03:46:22;79925.63;;;3.58;77.88
62680;BME280;68213;40.528;44.712;2023-04-08T03:47:23;79926.28;;;3.58;76.98
62680;BME280;68213;40.528;44.712;2023-04-08T03:48:24;79921.78;;;3.59;76.14
62680;BME280;68213;40.528;44.712;2023-04-08T03:49:24;79917.66;;;3.65;75.77
62680;BME280;68213;40.528;44.712;2023-04-08T03:50:25;79914.91;;;3.73;75.98
62680;BME280;68213;40.528;44.712;2023-04-08T03:51:26;79911.06;;;3.74;75.59
62680;BME280;68213;40.528;44.712;2023-04-08T03:52:27;79911.31;;;3.78;75.12
62680;BME280;68213;40.528;44.712;2023-04-08T03:53:28;79909.84;;;3.75;75.96
62680;BME280;68213;40.528;44.712;2023-04-08T03:54:29;79909.41;;;3.79;75.91
62680;BME280;68213;40.528;44.712;2023-04-08T03:55:29;79902.03;;;3.75;75.24
62680;BME280;68213;40.528;44.712;2023-04-08T03:56:30;79895.22;;;3.70;75.35
62680;BME280;68213;40.528;44.712;2023-04-08T03:57:31;79907.91;;;3.76;75.49
62680;BME280;68213;40.528;44.712;2023-04-08T03:58:35;79900.81;;;3.67;76.17
62680;BME280;68213;40.528;44.712;2023-04-08T03:59:37;79899.88;;;3.62;76.40
62680;BME280;68213;40.528;44.712;2023-04-08T04:00:40;79898.94;;;3.67;76.12
62680;BME280;68213;40.528;44.712;2023-04-08T04:01:40;79905.59;;;3.70;74.95
62680;BME280;68213;40.528;44.712;2023-04-08T04:02:41;79904.66;;;3.65;75.97
62680;BME280;68213;40.528;44.712;2023-04-08T04:03:42;79912.88;;;3.72;76.69
62680;BME280;68213;40.528;44.712;2023-04-08T04:04:42;79892.91;;;3.64;77.01
62680;BME280;68213;40.528;44.712;2023-04-08T04:05:43;79903.38;;;3.76;75.84
62680;BME280;68213;40.528;44.712;2023-04-08T04:06:44;79913.91;;;3.78;75.81
62680;BME280;68213;40.528;44.712;2023-04-08T04:07:44;79906.09;;;3.88;75.63
62680;BME280;68213;40.528;44.712;2023-04-08T04:08:45;79904.44;;;3.93;75.14
62680;BME280;68213;40.528;44.712;2023-04-08T04:09:46;79892.66;;;3.92;74.97
62680;BME280;68213;40.528;44.712;2023-04-08T04:10:46;79894.28;;;3.97;75.15
62680;BME280;68213;40.528;44.712;2023-04-08T04:11:49;79891.97;;;3.91;74.27
62680;BME280;68213;40.528;44.712;2023-04-08T04:12:50;79900.88;;;3.98;74.80
62680;BME280;68213;40.528;44.712;2023-04-08T04:13:50;79887.03;;;3.95;76.56
62680;BME280;68213;40.528;44.712;2023-04-08T04:14:51;79874.59;;;3.94;77.39
62680;BME280;68213;40.528;44.712;2023-04-08T04:15:52;79874.44;;;3.92;77.28
62680;BME280;68213;40.528;44.712;2023-04-08T04:16:52;79863.94;;;3.90;76.97
62680;BME280;68213;40.528;44.712;2023-04-08T04:17:53;79861.38;;;3.80;77.35
62680;BME280;68213;40.528;44.712;2023-04-08T04:18:54;79873.31;;;3.73;77.67
62680;BME280;68213;40.528;44.712;2023-04-08T04:19:54;79881.63;;;3.81;76.47
62680;BME280;68213;40.528;44.712;2023-04-08T04:20:55;79881.75;;;3.84;75.76
62680;BME280;68213;40.528;44.712;2023-04-08T04:21:56;79829.50;;;3.48;75.81
62680;BME280;68213;40.528;44.712;2023-04-08T04:22:56;79885.41;;;3.90;75.79
62680;BME280;68213;40.528;44.712;2023-04-08T04:23:57;79894.03;;;3.93;75.59
62680;BME280;68213;40.528;44.712;2023-04-08T04:24:58;79901.59;;;3.89;73.22
62680;BME280;68213;40.528;44.712;2023-04-08T04:25:58;79914.88;;;3.83;74.29
62680;BME280;68213;40.528;44.712;2023-04-08T04:26:59;79930.22;;;3.69;74.98
62680;BME280;68213;40.528;44.712;2023-04-08T04:28:00;79940.53;;;3.47;74.89
62680;BME280;68213;40.528;44.712;2023-04-08T04:29:02;79951.91;;;3.42;74.48
62680;BME280;68213;40.528;44.712;2023-04-08T04:30:02;79964.22;;;3.32;75.62
62680;BME280;68213;40.528;44.712;2023-04-08T04:31:04;79955.50;;;3.17;75.65
62680;BME280;68213;40.528;44.712;2023-04-08T04:32:05;79972.72;;;3.23;73.65
62680;BME280;68213;40.528;44.712;2023-04-08T04:33:06;79970.25;;;3.25;72.71
62680;BME280;68213;40.528;44.712;2023-04-08T04:34:06;79974.09;;;3.24;72.25
62680;BME280;68213;40.528;44.712;2023-04-08T04:35:11;79994.88;;;3.24;71.43
62680;BME280;68213;40.528;44.712;2023-04-08T04:36:12;79989.00;;;3.23;71.80
62680;BME280;68213;40.528;44.712;2023-04-08T04:37:13;79989.69;;;3.24;72.38
62680;BME280;68213;40.528;44.712;2023-04-08T04:38:14;79981.91;;;3.24;72.47
62680;BME280;68213;40.528;44.712;2023-04-08T04:39:19;79988.31;;;3.23;72.55
62680;BME280;68213;40.528;44.712;2023-04-08T04:40:19;79996.53;;;3.19;72.69
62680;BME280;68213;40.528;44.712;2023-04-08T04:41:22;80019.19;;;3.18;73.48
62680;BME280;68213;40.528;44.712;2023-04-08T04:42:23;80021.38;;;3.12;74.13
62680;BME280;68213;40.528;44.712;2023-04-08T04:43:24;80003.31;;;2.95;75.91
62680;BME280;68213;40.528;44.712;2023-04-08T04:44:28;80042.50;;;2.69;76.79
62680;BME280;68213;40.528;44.712;2023-04-08T04:45:28;80000.28;;;2.49;77.70
62680;BME280;68213;40.528;44.712;2023-04-08T04:46:29;80042.81;;;2.27;78.84
62680;BME280;68213;40.528;44.712;2023-04-08T04:47:30;80020.63;;;2.06;79.84
62680;BME280;68213;40.528;44.712;2023-04-08T04:48:35;80029.47;;;1.93;81.03
62680;BME280;68213;40.528;44.712;2023-04-08T04:49:35;80026.63;;;1.71;81.52
62680;BME280;68213;40.528;44.712;2023-04-08T04:50:36;80025.06;;;1.58;82.39
62680;BME280;68213;40.528;44.712;2023-04-08T04:51:36;80058.69;;;1.49;83.56
62680;BME280;68213;40.528;44.712;2023-04-08T04:52:37;80041.25;;;1.32;83.47
62680;BME280;68213;40.528;44.712;2023-04-08T04:53:38;80024.22;;;1.29;83.93
62680;BME280;68213;40.528;44.712;2023-04-08T04:54:38;80023.47;;;1.18;84.29
62680;BME280;68213;40.528;44.712;2023-04-08T04:55:39;80046.75;;;1.18;84.78
62680;BME280;68213;40.528;44.712;2023-04-08T04:56:42;80052.88;;;1.13;85.14
62680;BME280;68213;40.528;44.712;2023-04-08T04:57:43;80062.22;;;1.08;85.14
62680;BME280;68213;40.528;44.712;2023-04-08T04:58:46;80055.91;;;1.02;85.06
62680;BME280;68213;40.528;44.712;2023-04-08T04:59:46;80113.31;;;1.08;85.49
62680;BME280;68213;40.528;44.712;2023-04-08T05:00:47;80058.59;;;1.12;85.48
62680;BME280;68213;40.528;44.712;2023-04-08T05:01:48;80040.59;;;1.14;85.59
62680;BME280;68213;40.528;44.712;2023-04-08T05:02:48;80030.94;;;1.14;85.39
62680;BME280;68213;40.528;44.712;2023-04-08T05:03:49;80015.84;;;1.20;85.29
62680;BME280;68213;40.528;44.712;2023-04-08T05:04:51;80008.91;;;1.23;85.17
62680;BME280;68213;40.528;44.712;2023-04-08T05:05:53;80024.06;;;1.26;85.27
62680;BME280;68213;40.528;44.712;2023-04-08T05:06:54;79997.22;;;1.32;85.87
62680;BME280;68213;40.528;44.712;2023-04-08T05:07:54;79966.59;;;1.38;85.25
62680;BME280;68213;40.528;44.712;2023-04-08T05:08:55;79993.25;;;1.48;84.07
62680;BME280;68213;40.528;44.712;2023-04-08T05:09:56;79989.31;;;1.57;84.51
62680;BME280;68213;40.528;44.712;2023-04-08T05:10:56;79999.16;;;1.58;83.78
62680;BME280;68213;40.528;44.712;2023-04-08T05:11:58;79956.66;;;1.71;82.64
62680;BME280;68213;40.528;44.712;2023-04-08T05:12:59;79993.00;;;1.81;82.14
62680;BME280;68213;40.528;44.712;2023-04-08T05:14:00;79963.38;;;1.84;82.23
62680;BME280;68213;40.528;44.712;2023-04-08T05:15:01;79982.81;;;1.93;81.91
62680;BME280;68213;40.528;44.712;2023-04-08T05:16:01;79992.91;;;1.99;81.94
62680;BME280;68213;40.528;44.712;2023-04-08T05:17:02;79983.09;;;2.07;81.65
62680;BME280;68213;40.528;44.712;2023-04-08T05:18:03;79982.56;;;2.09;81.14
62680;BME280;68213;40.528;44.712;2023-04-08T05:19:03;79987.38;;;2.12;80.78
62680;BME280;68213;40.528;44.712;2023-04-08T05:20:05;80016.56;;;2.13;80.95
62680;BME280;68213;40.528;44.712;2023-04-08T05:21:06;79974.00;;;2.16;81.31
62680;BME280;68213;40.528;44.712;2023-04-08T05:22:06;79995.56;;;2.18;80.76
62680;BME280;68213;40.528;44.712;2023-04-08T05:23:07;79985.47;;;2.22;78.93
62680;BME280;68213;40.528;44.712;2023-04-08T05:24:08;79993.00;;;2.28;79.33
62680;BME280;68213;40.528;44.712;2023-04-08T05:25:09;79992.59;;;2.32;79.03
62680;BME280;68213;40.528;44.712;2023-04-08T05:26:09;79958.47;;;2.35;78.90
62680;BME280;68213;40.528;44.712;2023-04-08T05:27:10;79987.97;;;2.40;79.76
62680;BME280;68213;40.528;44.712;2023-04-08T05:28:11;79969.94;;;2.42;79.51
62680;BME280;68213;40.528;44.712;2023-04-08T05:29:11;79984.28;;;2.43;78.64
62680;BME280;68213;40.528;44.712;2023-04-08T05:30:12;79986.84;;;2.24;79.65
62680;BME280;68213;40.528;44.712;2023-04-08T05:31:16;79981.84;;;2.45;78.74